createdAt,value
2022-11-03T00:01:14.695Z,4.85
2022-11-03T00:06:45.375Z,4.15
2022-11-03T00:11:59.672Z,4.82
2022-11-03T00:14:04.085Z,5.80
2022-11-03T00:15:06.969Z,5.50
2022-11-03T00:16:12.079Z,4.53
2022-11-03T00:17:13.369Z,5.03
2022-11-03T00:28:45.581Z,4.38
2022-11-03T00:29:47.918Z,4.25
2022-11-03T00:31:54.580Z,4.18
2022-11-03T00:47:27.601Z,4.10
2022-11-03T00:48:30.702Z,3.83
2022-11-03T00:49:32.593Z,4.43
2022-11-03T01:08:07.379Z,3.50
2022-11-03T01:09:09.647Z,4.10
2022-11-03T01:10:11.812Z,4.40
2022-11-03T01:11:39.585Z,3.45
2022-11-03T01:30:35.416Z,3.92
2022-11-03T01:33:42.942Z,4.35
2022-11-03T01:37:51.541Z,3.63
2022-11-03T01:41:03.193Z,3.50
2022-11-03T01:42:06.665Z,3.15
2022-11-03T01:47:28.240Z,2.75
2022-11-03T01:54:50.810Z,2.70
2022-11-03T01:55:54.659Z,4.25
2022-11-03T01:56:58.685Z,3.33
2022-11-03T02:01:09.717Z,2.97
2022-11-03T02:04:26.873Z,3.58
2022-11-03T02:05:29.612Z,3.92
2022-11-03T02:06:31.977Z,3.17
2022-11-03T02:07:39.018Z,2.70
2022-11-03T02:08:46.385Z,3.15
2022-11-03T02:09:48.624Z,4.60
2022-11-03T02:26:59.885Z,4.20
2022-11-03T02:28:02.504Z,3.00
2022-11-03T02:52:28.595Z,3.00
2022-11-03T02:53:33.217Z,2.88
2022-11-03T02:54:44.699Z,3.28
2022-11-03T02:55:55.929Z,2.63
2022-11-03T02:57:01.243Z,2.67
2022-11-03T02:58:21.565Z,3.03
2022-11-03T03:12:57.829Z,2.70
2022-11-03T03:14:00.640Z,2.60
2022-11-03T03:15:07.012Z,3.13
2022-11-03T03:21:26.151Z,3.47
2022-11-03T03:22:43.442Z,2.70
2022-11-03T03:23:50.186Z,2.95
2022-11-03T03:24:58.860Z,2.95
2022-11-03T03:26:20.441Z,3.30
2022-11-03T03:27:27.000Z,3.25
2022-11-03T03:28:51.485Z,4.85
2022-11-03T03:29:55.751Z,3.83
2022-11-03T03:31:00.325Z,2.67
2022-11-03T03:32:03.531Z,2.78
2022-11-03T03:33:09.764Z,3.00
2022-11-03T03:34:33.338Z,3.25
2022-11-03T03:35:39.014Z,2.85
2022-11-03T03:36:42.657Z,3.13
2022-11-03T03:37:46.693Z,2.47
2022-11-03T03:38:53.243Z,2.63
2022-11-03T03:39:58.178Z,2.95
2022-11-03T03:41:10.354Z,2.75
2022-11-03T03:42:14.621Z,2.70
2022-11-03T03:43:20.499Z,2.75
2022-11-03T03:44:25.065Z,2.50
2022-11-03T03:45:26.860Z,2.53
2022-11-03T03:46:31.432Z,2.80
2022-11-03T03:47:34.494Z,3.22
2022-11-03T03:48:37.170Z,2.90
2022-11-03T03:49:42.053Z,3.58
2022-11-03T03:50:46.591Z,3.38
2022-11-03T03:51:50.408Z,3.03
2022-11-03T03:53:00.057Z,4.13
2022-11-03T03:54:01.916Z,2.75
2022-11-03T03:55:04.292Z,3.28
2022-11-03T03:56:05.981Z,3.50
2022-11-03T03:57:12.834Z,2.70
2022-11-03T03:58:16.063Z,2.67
2022-11-03T04:04:32.712Z,3.30
2022-11-03T04:15:23.537Z,2.80
2022-11-03T04:23:13.401Z,4.20
2022-11-03T04:24:15.870Z,5.30
2022-11-03T04:25:17.351Z,4.07
2022-11-03T04:26:23.296Z,3.40
2022-11-03T04:27:32.408Z,3.10
2022-11-03T04:28:35.289Z,2.85
2022-11-03T04:29:36.672Z,3.08
2022-11-03T04:31:42.851Z,3.33
2022-11-03T04:32:46.201Z,2.90
2022-11-03T04:33:50.760Z,3.00
2022-11-03T04:34:52.480Z,2.60
2022-11-03T04:35:57.438Z,2.83
2022-11-03T04:37:01.277Z,3.28
2022-11-03T04:38:19.304Z,3.67
2022-11-03T04:39:22.223Z,2.95
2022-11-03T04:40:23.779Z,3.47
2022-11-03T04:41:25.925Z,3.72
2022-11-03T04:42:30.906Z,3.65
2022-11-03T04:43:33.480Z,3.58
2022-11-03T04:44:35.701Z,3.65
2022-11-03T04:45:43.867Z,3.63
2022-11-03T04:46:46.905Z,3.90
2022-11-03T04:47:48.198Z,3.75
2022-11-03T04:48:49.709Z,4.63
2022-11-03T04:50:54.433Z,3.22
2022-11-03T04:51:57.533Z,3.25
2022-11-03T04:55:10.804Z,3.55
2022-11-03T04:57:18.174Z,3.63
2022-11-03T04:58:38.625Z,3.13
2022-11-03T04:59:41.664Z,3.38
2022-11-03T05:03:57.466Z,4.53
2022-11-03T05:05:00.728Z,3.42
2022-11-03T05:06:22.590Z,3.92
2022-11-03T05:07:42.415Z,4.30
2022-11-03T05:08:46.618Z,4.10
2022-11-03T05:09:49.480Z,4.20
2022-11-03T05:12:57.594Z,3.92
2022-11-03T05:20:35.747Z,3.75
2022-11-03T05:21:39.232Z,3.50
2022-11-03T05:30:00.965Z,3.95
2022-11-03T05:33:28.622Z,3.42
2022-11-03T05:39:48.560Z,4.32
2022-11-03T05:40:52.756Z,5.03
2022-11-03T05:41:55.264Z,4.47
2022-11-03T05:47:32.121Z,3.58
2022-11-03T05:48:39.340Z,5.25
2022-11-03T05:49:40.861Z,4.15
2022-11-03T05:50:43.172Z,6.82
2022-11-03T05:51:45.899Z,5.32
2022-11-03T05:52:51.264Z,5.00
2022-11-03T05:53:55.947Z,8.27
2022-11-03T05:55:01.488Z,6.90
2022-11-03T05:56:04.538Z,7.30
2022-11-03T06:09:48.864Z,9.02
2022-11-03T07:09:05.197Z,11.10
2022-11-03T07:10:08.279Z,9.98
2022-11-03T07:11:28.658Z,9.48
2022-11-03T07:12:29.949Z,10.65
2022-11-03T07:13:33.622Z,8.45
2022-11-03T07:17:45.893Z,6.45
2022-11-03T07:18:48.707Z,7.55
2022-11-03T07:19:51.116Z,7.13
2022-11-03T07:20:56.360Z,7.95
2022-11-03T07:22:04.644Z,6.93
2022-11-03T07:23:10.125Z,7.20
2022-11-03T07:24:31.164Z,6.65
2022-11-03T07:25:33.490Z,6.65
2022-11-03T07:26:35.876Z,7.32
2022-11-03T07:27:39.045Z,9.85
2022-11-03T07:28:40.834Z,10.10
2022-11-03T07:35:53.407Z,10.38
2022-11-03T07:37:55.198Z,8.57
2022-11-03T07:39:15.229Z,7.32
2022-11-03T07:40:50.029Z,6.88
2022-11-03T07:41:53.925Z,7.28
2022-11-03T07:43:24.272Z,7.50
2022-11-03T07:44:48.509Z,8.55
2022-11-03T07:46:35.036Z,7.38
2022-11-03T07:48:17.014Z,7.72
2022-11-03T07:49:31.024Z,7.15
2022-11-03T07:50:35.473Z,6.50
2022-11-03T07:51:38.945Z,6.43
2022-11-03T07:52:46.144Z,7.40
2022-11-03T07:53:49.207Z,6.40
2022-11-03T07:55:02.005Z,7.20
2022-11-03T07:56:39.687Z,8.43
2022-11-03T07:57:55.467Z,7.10
2022-11-03T08:06:25.998Z,8.25
2022-11-03T08:08:23.296Z,7.00
2022-11-03T08:09:17.965Z,6.15
2022-11-03T08:12:18.589Z,6.03
2022-11-03T08:13:21.746Z,6.43
2022-11-03T08:14:31.836Z,5.95
2022-11-03T08:15:37.116Z,6.00
2022-11-03T08:16:40.545Z,5.50
2022-11-03T08:17:48.016Z,6.10
2022-11-03T08:19:09.027Z,5.68
2022-11-03T08:20:25.439Z,5.15
2022-11-03T08:21:27.005Z,4.68
2022-11-03T08:23:11.886Z,5.20
2022-11-03T08:24:21.847Z,4.80
2022-11-03T08:25:24.199Z,4.85
2022-11-03T08:26:27.583Z,5.72
2022-11-03T08:27:32.226Z,7.50
2022-11-03T08:28:36.477Z,4.95
2022-11-03T08:29:39.123Z,4.50
2022-11-03T08:30:42.044Z,4.60
2022-11-03T08:31:44.713Z,4.30
2022-11-03T08:33:00.910Z,4.40
2022-11-03T08:34:02.531Z,4.90
2022-11-03T08:35:05.845Z,4.90
2022-11-03T08:36:10.490Z,5.50
2022-11-03T08:37:21.743Z,5.07
2022-11-03T08:38:31.414Z,4.55
2022-11-03T08:39:36.133Z,4.10
2022-11-03T08:40:40.142Z,4.20
2022-11-03T08:41:42.841Z,3.97
2022-11-03T08:42:45.023Z,4.35
2022-11-03T08:43:47.804Z,4.55
2022-11-03T08:44:49.283Z,4.75
2022-11-03T08:45:53.776Z,4.70
2022-11-03T08:46:56.042Z,4.22
2022-11-03T08:48:02.043Z,4.32
2022-11-03T08:49:04.124Z,4.22
2022-11-03T08:50:13.762Z,4.68
2022-11-03T08:51:16.476Z,4.88
2022-11-03T08:52:43.082Z,5.57
2022-11-03T08:54:04.963Z,4.60
2022-11-03T08:55:09.224Z,4.93
2022-11-03T08:56:14.458Z,4.78
2022-11-03T08:57:25.802Z,5.10
2022-11-03T08:58:34.449Z,4.72
2022-11-03T08:59:41.726Z,4.95
2022-11-03T09:01:17.378Z,4.70
2022-11-03T09:02:24.852Z,5.00
2022-11-03T09:03:28.581Z,6.28
2022-11-03T09:04:31.002Z,5.97
2022-11-03T09:05:37.072Z,5.32
2022-11-03T09:06:39.322Z,4.95
2022-11-03T09:10:42.637Z,5.47
2022-11-03T09:11:45.222Z,5.50
2022-11-03T09:12:58.780Z,5.55
2022-11-03T09:14:00.950Z,5.47
2022-11-03T09:15:06.698Z,5.73
2022-11-03T09:16:08.960Z,5.38
2022-11-03T09:17:15.587Z,5.60
2022-11-03T09:18:19.223Z,5.65
2022-11-03T09:19:21.062Z,5.63
2022-11-03T09:20:23.260Z,6.07
2022-11-03T09:21:25.862Z,5.32
2022-11-03T09:22:27.661Z,5.95
2022-11-03T09:23:30.895Z,5.95
2022-11-03T09:24:33.239Z,6.35
2022-11-03T11:32:39.933Z,3.45
2022-11-03T11:33:42.672Z,3.85
2022-11-03T11:34:47.553Z,3.90
2022-11-03T11:35:51.336Z,3.85
2022-11-03T16:44:02.322Z,4.97
2022-11-03T16:45:12.114Z,5.10
2022-11-03T16:46:14.545Z,6.57
2022-11-03T16:47:20.286Z,6.65
2022-11-03T16:48:22.572Z,6.80
2022-11-03T16:49:25.242Z,8.15
2022-11-03T16:50:27.627Z,7.95
2022-11-03T16:51:30.738Z,8.27
2022-11-03T16:52:32.660Z,8.52
2022-11-03T16:53:35.311Z,8.85
2022-11-03T16:54:37.677Z,8.05
2022-11-03T16:55:43.816Z,8.25
2022-11-03T16:56:49.426Z,7.53
2022-11-03T16:57:55.427Z,7.15
2022-11-03T16:58:57.582Z,6.70
2022-11-03T17:00:00.114Z,8.10
2022-11-03T17:01:04.630Z,7.15
2022-11-03T17:02:12.108Z,7.05
2022-11-03T17:03:18.786Z,7.20
2022-11-03T17:04:25.134Z,7.07
2022-11-03T17:05:27.450Z,7.43
2022-11-03T17:06:30.200Z,7.47
2022-11-03T17:07:32.885Z,7.32
2022-11-03T17:09:57.341Z,7.88
2022-11-03T17:11:00.178Z,8.30
2022-11-03T17:12:02.716Z,8.63
2022-11-03T17:13:10.031Z,9.05
2022-11-03T17:14:14.018Z,9.50
2022-11-03T17:15:17.436Z,9.77
2022-11-03T17:16:19.496Z,7.35
2022-11-03T17:17:23.578Z,8.32
2022-11-03T17:18:25.581Z,9.70
2022-11-03T17:19:28.148Z,9.30
2022-11-03T17:20:30.481Z,8.40
2022-11-03T17:21:32.965Z,8.68
2022-11-03T17:22:34.535Z,9.63
2022-11-03T17:23:37.372Z,8.40
2022-11-03T17:24:39.492Z,8.30
2022-11-03T17:25:41.077Z,9.48
2022-11-03T17:27:14.660Z,8.98
2022-11-03T17:28:18.798Z,8.15
2022-11-03T17:29:24.347Z,8.52
2022-11-03T17:30:30.873Z,7.47
2022-11-03T17:31:32.564Z,7.28
2022-11-03T17:32:45.504Z,7.07
2022-11-03T17:33:47.901Z,8.40
2022-11-03T17:34:49.782Z,8.57
2022-11-03T17:35:51.189Z,8.82
2022-11-03T17:37:58.631Z,10.05
2022-11-03T17:39:03.368Z,10.15
2022-11-03T17:40:15.299Z,8.93
2022-11-03T17:41:19.070Z,10.55
2022-11-03T17:42:24.818Z,9.93
2022-11-03T17:43:28.624Z,9.02
2022-11-03T17:44:30.334Z,8.10
2022-11-03T17:45:32.472Z,8.80
2022-11-03T17:46:34.792Z,9.52
2022-11-03T17:47:36.560Z,9.02
2022-11-03T17:48:39.551Z,8.32
2022-11-03T17:49:43.458Z,8.60
2022-11-03T17:50:48.417Z,8.25
2022-11-03T17:51:51.311Z,8.90
2022-11-03T17:52:53.834Z,8.88
2022-11-03T17:53:55.368Z,8.13
2022-11-03T17:54:59.740Z,8.35
2022-11-03T17:57:24.036Z,8.60
2022-11-03T17:58:32.742Z,9.02
2022-11-03T17:59:34.943Z,8.10
2022-11-03T18:00:37.769Z,8.57
2022-11-03T18:01:39.903Z,8.70
2022-11-03T18:02:43.690Z,9.18
2022-11-03T18:03:45.451Z,9.80
2022-11-03T18:04:49.114Z,9.73
2022-11-03T18:05:51.996Z,8.85
2022-11-03T18:06:55.788Z,8.88
2022-11-03T18:07:59.691Z,9.27
2022-11-03T18:09:03.822Z,9.20
2022-11-03T18:10:06.869Z,8.85
2022-11-03T18:11:34.917Z,7.43
2022-11-03T18:12:59.231Z,6.95
2022-11-03T18:14:05.655Z,6.97
2022-11-03T18:15:19.282Z,7.55
2022-11-03T18:16:22.902Z,7.80
2022-11-03T18:17:24.495Z,8.80
2022-11-03T18:18:45.289Z,8.32
2022-11-03T18:19:51.656Z,8.23
2022-11-03T18:20:54.908Z,8.57
2022-11-03T18:21:58.813Z,7.68
2022-11-03T18:23:15.639Z,7.63
2022-11-03T18:24:19.992Z,7.88
2022-11-03T18:25:22.266Z,8.23
2022-11-03T18:26:28.921Z,7.25
2022-11-03T18:27:30.678Z,8.10
2022-11-03T18:28:32.464Z,8.15
2022-11-03T18:29:35.148Z,8.27
2022-11-03T18:30:44.602Z,8.23
2022-11-03T18:31:49.909Z,8.15
2022-11-03T18:32:53.594Z,7.68
2022-11-03T18:33:55.658Z,8.18
2022-11-03T18:34:57.477Z,10.00
2022-11-03T18:36:03.425Z,10.15
2022-11-03T18:37:05.647Z,9.30
2022-11-03T18:38:12.831Z,8.27
2022-11-03T18:39:23.021Z,8.38
2022-11-03T18:40:28.063Z,8.00
2022-11-03T18:41:42.861Z,8.13
2022-11-03T18:42:47.585Z,7.80
2022-11-03T18:43:52.496Z,7.95
2022-11-03T18:45:01.513Z,7.80
2022-11-03T18:46:05.634Z,8.60
2022-11-03T18:47:07.574Z,8.52
2022-11-03T18:48:15.629Z,8.80
2022-11-03T18:49:19.205Z,7.93
2022-11-03T18:50:21.777Z,8.45
2022-11-03T18:51:24.354Z,9.05
2022-11-03T18:52:27.070Z,9.10
2022-11-03T18:53:30.359Z,8.48
2022-11-03T18:54:35.312Z,9.93
2022-11-03T18:55:37.593Z,9.98
2022-11-03T18:56:39.631Z,8.43
2022-11-03T18:57:44.165Z,7.35
2022-11-03T18:58:51.357Z,7.63
2022-11-03T18:59:54.033Z,7.82
2022-11-03T19:00:55.658Z,8.57
2022-11-03T19:01:58.354Z,9.00
2022-11-03T19:03:00.555Z,8.57
2022-11-03T19:04:03.041Z,9.15
2022-11-03T19:05:13.329Z,8.00
2022-11-03T19:06:17.270Z,7.90
2022-11-03T19:07:31.428Z,7.50
2022-11-03T19:08:33.858Z,6.55
2022-11-03T19:09:37.247Z,8.93
2022-11-03T19:10:42.269Z,9.02
2022-11-03T19:11:44.667Z,8.32
2022-11-03T19:12:47.700Z,7.78
2022-11-03T19:13:51.812Z,7.03
2022-11-03T19:14:56.463Z,7.63
2022-11-03T19:16:00.172Z,7.65
2022-11-03T19:17:24.345Z,7.90
2022-11-03T19:18:28.253Z,7.90
2022-11-03T19:19:31.072Z,8.13
2022-11-03T19:20:32.585Z,7.30
2022-11-03T19:21:34.970Z,6.93
2022-11-03T19:22:36.526Z,7.45
2022-11-03T19:23:39.077Z,7.85
2022-11-03T19:24:41.805Z,7.72
2022-11-03T19:25:45.438Z,8.07
2022-11-03T19:26:57.050Z,7.65
2022-11-03T19:28:01.455Z,7.15
2022-11-03T19:29:09.185Z,6.65
2022-11-03T19:30:18.162Z,6.60
2022-11-03T19:31:31.187Z,7.75
2022-11-03T19:32:39.701Z,8.40
2022-11-03T19:33:45.094Z,8.65
2022-11-03T19:34:50.213Z,8.70
2022-11-03T19:35:52.729Z,8.40
2022-11-03T19:36:54.740Z,8.02
2022-11-03T19:38:06.783Z,8.73
2022-11-03T19:39:22.978Z,9.07
2022-11-03T19:40:25.485Z,8.98
2022-11-03T19:41:46.258Z,8.93
2022-11-03T19:42:49.079Z,8.38
2022-11-03T19:43:50.623Z,8.75
2022-11-03T19:44:58.301Z,8.82
2022-11-03T19:46:00.509Z,9.10
2022-11-03T19:47:03.165Z,10.13
2022-11-03T19:49:35.149Z,10.45
2022-11-03T19:50:37.637Z,10.57
2022-11-03T19:51:40.814Z,11.70
2022-11-03T19:52:45.979Z,10.70
2022-11-03T19:53:49.617Z,9.18
2022-11-03T19:54:52.835Z,8.98
2022-11-03T19:55:55.618Z,8.68
2022-11-03T19:56:59.887Z,7.38
2022-11-03T19:58:18.406Z,6.50
2022-11-03T19:59:19.838Z,7.15
2022-11-03T20:00:23.230Z,6.88
2022-11-03T20:01:27.931Z,7.10
2022-11-03T20:02:30.522Z,7.30
2022-11-03T20:03:32.552Z,8.27
2022-11-03T20:04:35.298Z,8.00
2022-11-03T20:05:39.030Z,7.78
2022-11-03T20:06:41.005Z,8.23
2022-11-03T20:07:46.771Z,16.05
2022-11-03T20:08:48.584Z,11.63
2022-11-03T20:09:50.599Z,8.35
2022-11-03T20:10:53.445Z,8.55
2022-11-03T20:12:04.337Z,9.00
2022-11-03T20:13:10.598Z,8.27
2022-11-03T20:14:17.784Z,8.52
2022-11-03T20:15:24.337Z,8.80
2022-11-03T20:16:31.616Z,6.82
2022-11-03T20:17:33.528Z,7.80
2022-11-03T20:18:35.718Z,7.95
2022-11-03T20:19:38.893Z,7.93
2022-11-03T20:20:42.549Z,7.75
2022-11-03T20:21:47.630Z,7.75
2022-11-03T20:22:53.003Z,8.20
2022-11-03T20:23:55.806Z,8.13
2022-11-03T20:25:03.346Z,9.15
2022-11-03T20:26:15.016Z,9.57
2022-11-03T20:27:21.689Z,8.65
2022-11-03T20:28:27.926Z,8.85
2022-11-03T20:29:34.749Z,8.63
2022-11-03T20:30:40.103Z,9.95
2022-11-03T20:31:43.676Z,8.88
2022-11-03T20:32:48.273Z,9.02
2022-11-03T20:33:50.858Z,9.73
2022-11-03T20:34:55.470Z,8.93
2022-11-03T20:35:58.642Z,8.82
2022-11-03T20:37:04.553Z,9.57
2022-11-03T20:38:12.509Z,8.80
2022-11-03T20:39:18.430Z,8.70
2022-11-03T20:40:23.914Z,8.02
2022-11-03T20:41:29.291Z,7.90
2022-11-03T20:42:32.357Z,8.10
2022-11-03T20:43:40.401Z,8.57
2022-11-03T20:44:44.010Z,8.98
2022-11-03T20:45:45.409Z,11.07
2022-11-03T20:46:47.545Z,10.70
2022-11-03T20:47:51.667Z,8.05
2022-11-03T20:48:57.806Z,8.05
2022-11-03T20:49:59.686Z,7.90
2022-11-03T20:51:04.263Z,7.78
2022-11-03T20:52:12.888Z,7.88
2022-11-03T20:53:21.251Z,7.88
2022-11-03T20:54:23.194Z,7.90
2022-11-03T20:55:31.103Z,7.80
2022-11-03T20:56:34.565Z,8.25
2022-11-03T20:57:37.734Z,7.57
2022-11-03T20:58:39.579Z,7.45
2022-11-03T20:59:41.569Z,6.93
2022-11-03T21:00:46.110Z,7.28
2022-11-03T21:01:47.700Z,6.95
2022-11-03T21:02:51.149Z,6.50
2022-11-03T21:04:00.233Z,6.53
2022-11-03T21:05:04.489Z,5.75
2022-11-03T21:06:07.061Z,6.70
2022-11-03T21:07:15.371Z,6.57
2022-11-03T21:08:23.641Z,5.50
2022-11-03T21:09:27.186Z,6.07
2022-11-03T21:10:28.595Z,5.90
2022-11-03T21:11:37.109Z,5.95
2022-11-03T21:12:39.810Z,5.72
2022-11-03T21:13:43.487Z,6.50
2022-11-03T21:15:11.413Z,7.13
2022-11-03T21:16:34.289Z,6.65
2022-11-03T21:17:55.305Z,5.82
2022-11-03T21:19:17.395Z,6.32
2022-11-03T21:20:20.230Z,5.40
2022-11-03T21:21:22.725Z,6.10
2022-11-03T21:22:52.485Z,5.75
2022-11-03T21:23:55.881Z,5.20
2022-11-03T21:25:00.772Z,5.80
2022-11-03T21:26:03.390Z,5.40
2022-11-03T21:27:05.974Z,5.32
2022-11-03T21:28:08.171Z,4.80
2022-11-03T21:29:19.610Z,5.28
2022-11-03T21:30:31.946Z,5.18
2022-11-03T21:31:34.398Z,5.35
2022-11-03T21:32:37.859Z,5.57
2022-11-03T21:33:40.006Z,5.55
2022-11-03T21:34:41.925Z,5.63
2022-11-03T21:35:45.612Z,6.22
2022-11-03T21:36:47.758Z,6.80
2022-11-03T21:37:50.842Z,7.22
2022-11-03T21:38:52.688Z,6.93
2022-11-03T21:39:55.371Z,6.47
2022-11-03T21:41:18.449Z,5.80
2022-11-03T21:42:40.334Z,6.13
2022-11-03T21:44:01.310Z,6.07
2022-11-03T21:45:04.058Z,6.68
2022-11-03T21:46:19.632Z,6.43
2022-11-03T21:47:21.893Z,6.13
2022-11-03T21:48:42.396Z,5.97
2022-11-03T21:49:45.368Z,6.90
2022-11-03T21:50:47.946Z,6.80
2022-11-03T21:51:50.446Z,7.82
2022-11-03T21:52:52.906Z,7.22
2022-11-03T21:53:54.731Z,7.07
2022-11-03T21:55:03.877Z,7.35
2022-11-03T21:56:05.896Z,6.45
2022-11-03T21:57:09.470Z,5.75
2022-11-03T21:58:14.376Z,6.60
2022-11-03T21:59:17.032Z,6.95
2022-11-03T22:00:19.595Z,7.15
2022-11-03T22:01:22.064Z,7.73
2022-11-03T22:02:31.579Z,6.75
2022-11-03T22:03:33.933Z,6.53
2022-11-03T22:04:37.243Z,6.10
2022-11-03T22:05:40.610Z,5.95
2022-11-03T22:06:45.158Z,6.05
2022-11-03T22:07:46.605Z,5.78
2022-11-03T22:08:48.650Z,6.47
2022-11-03T22:09:50.990Z,6.35
2022-11-03T22:10:53.579Z,8.10
2022-11-03T22:11:55.639Z,8.57
2022-11-03T22:12:58.297Z,8.57
2022-11-03T22:14:03.551Z,8.18
2022-11-03T22:15:26.446Z,7.15
2022-11-03T22:16:44.143Z,8.80
2022-11-03T22:17:45.603Z,7.97
2022-11-03T22:19:15.012Z,7.50
2022-11-03T22:20:37.351Z,6.95
2022-11-03T22:22:00.357Z,7.80
2022-11-03T22:23:22.629Z,7.53
2022-11-03T22:24:44.322Z,6.82
2022-11-03T22:26:06.359Z,6.82
2022-11-03T22:27:08.778Z,6.78
2022-11-03T22:28:14.544Z,7.28
2022-11-03T22:29:36.585Z,7.13
2022-11-03T22:31:01.366Z,8.90
2022-11-03T22:32:05.038Z,8.68
2022-11-03T22:33:07.532Z,7.60
2022-11-03T22:34:29.348Z,6.65
2022-11-03T22:35:50.076Z,6.80
2022-11-03T22:36:51.745Z,6.50
2022-11-03T22:38:12.718Z,5.90
2022-11-03T22:39:34.206Z,5.65
2022-11-03T22:40:57.369Z,5.88
2022-11-03T22:42:19.517Z,5.47
2022-11-03T22:43:42.481Z,5.77
2022-11-03T22:45:04.238Z,5.05
2022-11-03T22:46:07.879Z,5.10
2022-11-03T22:47:13.337Z,5.13
2022-11-03T22:48:23.874Z,5.22
2022-11-03T22:49:25.660Z,5.60
2022-11-03T22:50:34.132Z,5.65
2022-11-03T22:51:37.987Z,5.50
2022-11-03T22:52:40.488Z,5.18
2022-11-03T22:54:03.444Z,5.22
2022-11-03T22:55:06.510Z,5.60
2022-11-03T22:56:08.393Z,5.35
2022-11-03T22:57:16.082Z,5.93
2022-11-03T22:58:20.178Z,5.10
2022-11-03T22:59:22.725Z,5.85
2022-11-03T23:00:24.958Z,5.70
2022-11-03T23:01:28.338Z,5.80
2022-11-03T23:02:30.997Z,5.65
2022-11-03T23:03:35.910Z,5.97
2022-11-03T23:04:37.601Z,5.70
2022-11-03T23:05:40.212Z,6.10
2022-11-03T23:06:41.755Z,6.70
2022-11-03T23:07:45.521Z,5.93
2022-11-03T23:08:49.308Z,6.25
2022-11-03T23:09:52.630Z,5.80
2022-11-03T23:10:54.658Z,5.88
2022-11-03T23:11:57.126Z,6.13
2022-11-03T23:12:58.710Z,6.00
2022-11-03T23:14:04.738Z,5.68
2022-11-03T23:15:28.433Z,6.25
2022-11-03T23:16:41.285Z,7.55
2022-11-03T23:18:05.398Z,6.95
2022-11-03T23:19:31.281Z,6.28
2022-11-03T23:20:59.781Z,6.18
2022-11-03T23:22:01.832Z,6.10
2022-11-03T23:23:04.824Z,6.20
2022-11-03T23:24:28.876Z,6.40
2022-11-03T23:25:32.015Z,6.50
2022-11-03T23:26:33.840Z,6.38
2022-11-03T23:27:38.428Z,6.20
2022-11-03T23:28:43.715Z,6.25
2022-11-03T23:29:48.299Z,6.43
2022-11-03T23:30:53.678Z,6.68
2022-11-03T23:31:57.694Z,6.45
2022-11-03T23:33:00.454Z,6.03
2022-11-03T23:34:07.444Z,6.13
2022-11-03T23:35:09.636Z,5.97
2022-11-03T23:36:14.998Z,6.25
2022-11-03T23:37:18.611Z,6.75
2022-11-03T23:38:20.795Z,5.90
2022-11-03T23:39:24.262Z,6.65
2022-11-03T23:40:26.732Z,5.80
2022-11-03T23:41:31.739Z,5.80
2022-11-03T23:42:33.661Z,6.35
2022-11-03T23:43:36.254Z,6.63
2022-11-03T23:44:59.510Z,6.30
2022-11-03T23:46:20.377Z,6.10
2022-11-03T23:47:41.374Z,6.47
2022-11-03T23:48:48.120Z,6.50
2022-11-03T23:49:49.656Z,6.95
2022-11-03T23:50:52.674Z,6.88
2022-11-03T23:51:54.533Z,6.65
2022-11-03T23:52:56.242Z,7.33
2022-11-03T23:53:59.393Z,7.05
2022-11-03T23:55:00.910Z,6.85
2022-11-03T23:56:21.571Z,6.57
2022-11-03T23:57:44.529Z,7.05
2022-11-03T23:58:51.494Z,6.65
2022-11-03T23:59:53.788Z,7.25
